CYHZ/YHZ METAR and TAF weather

Enter ICAO airport designator
Station Type Date Time Source
CYHZ METAR 2020/09/26 12:00 UTC NOAA

CYHZ 261200Z 16006KT 15SM BKN070 12/07 A3021 RMK AC5 SLP233


Station Type Date Time Source
CYHZ Decoded METAR 2020/09/26 12:00 UTC NOAA

Halifax International Airport , Canada (CYHZ) 44-53N 063-30W
Sep 26, 2020 - 08:00 AM EDT / 2020.09.26 1200 UTC
Wind: from the SSE (160 degrees) at 7 MPH (6 KT):0
Visibility: 15 mile(s):0
Sky conditions: mostly cloudy
Temperature: 53 F (12 C)
Dew Point: 44 F (7 C)
Relative Humidity: 71%
Pressure (altimeter): 30.21 in. Hg (1023 hPa)
ob: CYHZ 261200Z 16006KT 15SM BKN070 12/07 A3021 RMK AC5 SLP233
cycle: 12

Station Type Date Time Source
CYHZ TAF 2020/09/26 12:42 UTC NOAA

TAF CYHZ 261141Z 2612/2712 VRB03KT P6SM FEW050 SCT250
TEMPO 2612/2615 BKN050 PROB30 2612/2615 4SM -DZ BR SCT003 BKN006
FM261500 18012KT P6SM FEW040 PROB30 2615/2617 4SM -DZ BR SCT004 BKN008
FM262300 20010KT P6SM FEW006 PROB30 2623/2703 2SM BR OVC006
FM270300 20010KT P6SM OVC006 PROB30 2703/2710 1SM BR OVC003
FM271000 21010KT P6SM BKN008 OVC012
RMK NXT FCST BY 261500Z

Example: see airport list